createdAt,value
2023-04-10T06:15:59.383Z,31.9
2023-04-10T06:21:54.345Z,32.9
2023-04-10T06:27:45.976Z,33.5
2023-04-10T06:33:40.742Z,35.1
2023-04-10T06:39:34.187Z,39.6
2023-04-10T06:45:09.793Z,43.3
2023-04-10T06:51:01.385Z,45.1
2023-04-10T07:05:12.643Z,28.1
2023-04-10T07:10:48.570Z,26.8
2023-04-10T07:16:41.934Z,25.4
2023-04-10T07:22:18.317Z,24.5
2023-04-10T07:28:09.523Z,23.6
2023-04-10T07:34:03.487Z,22.8
2023-04-10T07:39:54.230Z,22.3
2023-04-10T07:45:45.270Z,22.1
2023-04-10T07:51:22.842Z,22.5
2023-04-10T07:57:13.778Z,23.8
2023-04-10T08:02:34.707Z,25.6
2023-04-10T08:08:13.699Z,29.5
2023-04-10T08:14:04.639Z,32.4
2023-04-10T08:19:55.732Z,35.7
2023-04-10T08:25:57.179Z,39.3
2023-04-10T08:31:48.712Z,41.1
2023-04-10T08:37:40.787Z,34.5
2023-04-10T08:43:48.419Z,28.8
2023-04-10T08:49:39.611Z,30.2
2023-04-10T08:55:32.706Z,34.8
2023-04-10T09:10:26.835Z,35.6
2023-04-10T09:16:18.623Z,29.9
2023-04-10T09:22:14.472Z,30.9
2023-04-10T09:28:08.484Z,33.3
2023-04-10T09:34:00.828Z,37.6
2023-04-10T09:39:53.070Z,44.5
2023-04-10T09:45:43.202Z,34.6
2023-04-10T09:51:34.497Z,30.3
2023-04-10T09:57:26.932Z,31.5
2023-04-10T10:03:18.400Z,32.1
2023-04-10T10:09:10.461Z,32.4
2023-04-10T10:15:04.702Z,33.6
2023-04-10T10:20:57.140Z,35
2023-04-10T10:26:48.235Z,34.5
2023-04-10T10:32:55.516Z,33.9
2023-04-10T10:38:32.460Z,33.8
2023-04-10T10:44:23.350Z,35.1
2023-04-10T10:50:02.515Z,38.3
2023-04-10T10:56:08.584Z,41.4
2023-04-10T11:02:02.069Z,35.4
2023-04-10T11:07:56.464Z,33.5
2023-04-10T11:13:49.847Z,32.8
2023-04-10T11:19:57.956Z,38.9
2023-04-10T11:25:50.000Z,39.2
2023-04-10T11:31:25.841Z,34.3
2023-04-10T11:37:20.691Z,40.1
2023-04-10T11:43:12.946Z,44.1
2023-04-10T11:49:04.762Z,43.6
2023-04-10T11:54:41.467Z,45.9
2023-04-10T12:00:33.930Z,41.7
2023-04-10T12:06:30.343Z,35.4
2023-04-10T12:12:22.451Z,33.7
2023-04-10T12:18:15.308Z,32.4
2023-04-10T12:24:06.508Z,30.7
2023-04-10T12:29:58.442Z,28.6
2023-04-10T12:35:52.889Z,26.3
2023-04-10T12:41:45.004Z,24.1
2023-04-10T12:47:36.275Z,22.2
2023-04-10T12:53:13.262Z,20.6
2023-04-10T12:59:04.125Z,18.6
2023-04-10T13:04:58.126Z,17.1
2023-04-10T13:10:36.094Z,16.1
2023-04-10T13:16:27.351Z,15.9
2023-04-10T13:22:19.679Z,17.6
2023-04-10T13:28:14.101Z,24.2
2023-04-10T13:34:05.259Z,31.9
2023-04-10T13:39:56.856Z,36.9
2023-04-10T13:45:50.297Z,39.7
2023-04-10T13:51:48.104Z,41.6
2023-04-10T13:57:23.745Z,44.1
2023-04-10T14:03:17.252Z,41.3
2023-04-10T14:09:09.056Z,31.1
2023-04-10T14:15:00.609Z,30.3
2023-04-10T14:20:53.779Z,31.3
2023-04-10T14:26:56.401Z,33.1
2023-04-10T14:33:10.480Z,33.4
2023-04-10T14:38:47.316Z,32.9
2023-04-10T14:44:22.898Z,31.8
2023-04-10T14:50:15.004Z,30.3
2023-04-10T14:56:07.003Z,28.9
2023-04-10T15:01:43.201Z,27.8
2023-04-10T15:07:38.889Z,26.3
2023-04-10T15:13:30.987Z,24.9
2023-04-10T15:19:22.777Z,23.4
2023-04-10T15:25:24.323Z,22.3
2023-04-10T15:31:16.591Z,21.3
2023-04-10T15:37:07.617Z,20.4
2023-04-10T15:42:44.464Z,19.7
2023-04-10T15:48:36.877Z,19.1
2023-04-10T15:54:39.397Z,18.6
2023-04-10T16:00:30.261Z,18.1
2023-04-10T16:06:10.099Z,17.7
2023-04-10T16:12:15.711Z,17.4
2023-04-10T16:18:10.493Z,17.1
2023-04-10T16:24:04.699Z,16.8
2023-04-10T16:29:56.167Z,16.6
2023-04-10T16:35:46.816Z,16.3
2023-04-10T16:41:23.788Z,15.8
2023-04-10T16:47:15.792Z,15.4
2023-04-10T16:53:07.260Z,14.8
2023-04-10T16:58:43.663Z,14.2
2023-04-10T17:04:36.656Z,13.4
2023-04-10T17:10:26.830Z,12.6
2023-04-10T17:16:18.628Z,11.9
2023-04-10T17:22:09.864Z,11.3
2023-04-10T17:28:02.469Z,10.6
2023-04-10T17:33:54.852Z,9.9
2023-04-10T17:39:31.415Z,9.3
2023-04-10T17:45:07.237Z,8.8
2023-04-10T17:51:01.479Z,8.3
2023-04-10T17:56:53.006Z,7.9
2023-04-10T18:02:44.117Z,7.6
2023-04-10T18:08:36.631Z,7.3
2023-04-10T18:13:58.116Z,7.1
2023-04-10T18:19:49.730Z,6.9
2023-04-10T18:25:41.788Z,6.8
2023-04-10T18:31:54.021Z,6.6
2023-04-10T18:38:04.697Z,6.5
2023-04-10T18:44:03.937Z,6.4
2023-04-10T18:50:10.517Z,6.3
2023-04-10T18:55:48.813Z,6.2
2023-04-10T19:01:25.452Z,6.1
2023-04-10T19:07:19.958Z,6.1
2023-04-10T19:13:21.550Z,6
2023-04-10T19:19:15.344Z,5.9
2023-04-10T19:25:36.694Z,5.7
2023-04-10T19:31:28.891Z,5.6
2023-04-10T19:37:05.893Z,5.4
2023-04-10T19:42:59.220Z,5.3
2023-04-10T19:48:50.760Z,5.1
2023-04-10T19:54:44.854Z,4.9
2023-04-10T20:00:57.442Z,4.8
2023-04-10T20:06:51.662Z,4.6
2023-04-10T20:12:43.045Z,4.5
2023-04-10T20:18:19.439Z,4.5
2023-04-10T20:24:10.622Z,4.4
2023-04-10T20:29:46.871Z,4.4
2023-04-10T20:35:23.165Z,4.4
2023-04-10T20:41:13.941Z,4.4
2023-04-10T20:46:49.965Z,4.4
2023-04-10T20:52:41.455Z,4.4
2023-04-10T20:58:43.370Z,4.4
2023-04-10T21:04:37.132Z,4.4
2023-04-10T21:10:27.788Z,4.4
2023-04-10T21:15:47.616Z,4.3
2023-04-10T21:21:38.934Z,4.1
2023-04-10T21:27:30.851Z,4.1
2023-04-10T21:33:22.127Z,3.9
2023-04-10T21:39:14.473Z,3.9
2023-04-10T21:44:49.610Z,3.8
2023-04-10T21:50:25.479Z,3.6
2023-04-10T21:56:01.548Z,3.5
2023-04-10T22:01:37.860Z,3.4
2023-04-10T22:07:11.940Z,3.4
2023-04-10T22:12:48.899Z,3.3
2023-04-10T22:18:44.932Z,3.2
2023-04-10T22:24:21.657Z,3.1
2023-04-10T22:30:04.581Z,3.1
2023-04-10T22:35:40.926Z,3.1
2023-04-10T22:41:16.144Z,3.1
2023-04-10T22:46:36.818Z,3.1
2023-04-10T22:52:12.983Z,3.1
2023-04-10T22:57:17.845Z,3.1
2023-04-10T23:02:23.488Z,3.1
2023-04-10T23:08:00.673Z,3.2
2023-04-10T23:13:36.601Z,3.3
2023-04-10T23:19:29.199Z,3.3
2023-04-10T23:25:21.184Z,3.4
2023-04-10T23:31:12.293Z,3.4
2023-04-10T23:37:04.972Z,3.6
2023-04-10T23:42:40.822Z,3.6
2023-04-10T23:48:31.748Z,3.6
2023-04-10T23:54:25.227Z,3.6
